Spencer, Iowa
Current Conditions -  °F | °C
As of 9:53 PM on Friday 24 Oct 2014 (Local Time) from KSPW Reporting Station
Clear Clear  
Wind Chill: 47°   Ceiling: Unl
Heat Index: 49°   Visibility: 10mi
Dew Point: 44°   Wind: 5mph
Humidity: 83%   Direction: 270°W
Pressure: 29.97"   Gusts: NA
Location:  43.14°N, 95.14°W
Report Text: KSPW 250253Z AUTO 27004KT 10SM CLR 09/07 A2997 RMK AO2 SLP149 T00940067 53014 TSNO
Loading
Personal Weather Stations






























Interactive Weather Map
Tropical Storm Tracking
New forecast layout! Learn more

10-Day Weather Forecast

Advertisements
Track Severe Weather on mobile